Time;durP1;ratioP1;P1;durP2;ratioP2;P2;SDS_P1;SDS_P2;PMS_P1;PMS_P2;Temp;Humidity;BMP_temperature;BMP_pressure;BME280_temperature;BME280_humidity;BME280_pressure;Samples;Min_cycle;Max_cycle;Signal;HPM_P1;HPM_P2
2022/02/27 00:00:33;;;;;;;41.05;22.73;;;3.70;99.90;;;;;;2621779;47;20029;31
2022/02/27 00:03:09;;;;;;;32.70;20.23;;;3.70;99.90;;;;;;2603053;54;20979;31
2022/02/27 00:05:43;;;;;;;39.90;22.95;;;3.60;99.90;;;;;;2603110;54;20079;31
2022/02/27 00:08:17;;;;;;;46.50;24.98;;;3.70;99.90;;;;;;2606945;47;20820;31
2022/02/27 00:10:54;;;;;;;42.70;24.20;;;3.60;99.90;;;;;;2603320;54;20034;31
2022/02/27 00:13:28;;;;;;;47.08;25.48;;;3.70;99.90;;;;;;2622075;47;20036;31
2022/02/27 00:16:02;;;;;;;43.08;25.95;;;3.60;99.90;;;;;;2603181;54;20890;31
2022/02/27 00:18:36;;;;;;;50.67;27.25;;;3.60;99.90;;;;;;2604091;54;20027;31
2022/02/27 00:21:10;;;;;;;124.03;50.60;;;3.60;99.90;;;;;;2622773;46;19954;31
2022/02/27 00:23:44;;;;;;;132.65;53.78;;;3.60;99.90;;;;;;2622562;46;20052;31
2022/02/27 00:26:20;;;;;;;121.70;46.33;;;3.60;99.90;;;;;;2603916;54;20880;31
2022/02/27 00:28:56;;;;;;;85.75;37.95;;;3.50;99.90;;;;;;2604024;54;20123;31
2022/02/27 00:31:30;;;;;;;72.85;32.95;;;3.50;99.90;;;;;;2622611;46;20034;31
2022/02/27 00:34:04;;;;;;;67.13;31.52;;;3.50;99.90;;;;;;2622507;46;20078;31
2022/02/27 00:36:37;;;;;;;75.70;33.10;;;3.50;99.90;;;;;;2702604;39;21054;31
2022/02/27 00:39:11;;;;;;;68.75;31.63;;;3.40;99.90;;;;;;2603827;54;20110;31
2022/02/27 00:41:46;;;;;;;80.70;34.70;;;3.40;99.90;;;;;;2603736;54;20022;31
2022/02/27 00:44:23;;;;;;;101.53;38.47;;;3.40;99.90;;;;;;2604150;54;20015;31
2022/02/27 00:46:58;;;;;;;153.35;51.50;;;3.40;99.90;;;;;;2603696;54;20046;31
2022/02/27 00:49:32;;;;;;;143.00;51.70;;;3.30;99.90;;;;;;2622405;46;20744;31
2022/02/27 00:52:06;;;;;;;161.90;57.75;;;3.20;99.90;;;;;;2603956;54;20022;31
2022/02/27 00:54:40;;;;;;;262.83;84.75;;;3.10;99.90;;;;;;2619722;46;25170;31
2022/02/27 00:57:14;;;;;;;286.20;90.33;;;3.10;99.90;;;;;;2621773;46;20879;31
2022/02/27 00:59:51;;;;;;;235.68;73.07;;;3.00;99.90;;;;;;2603838;54;20052;31
2022/02/27 01:02:25;;;;;;;232.73;70.22;;;2.90;99.90;;;;;;2603493;54;20022;31
2022/02/27 01:04:59;;;;;;;240.23;78.60;;;2.90;99.90;;;;;;2603664;54;20026;31
2022/02/27 01:07:33;;;;;;;312.98;98.45;;;2.70;99.90;;;;;;2621848;46;20914;31
2022/02/27 01:10:10;;;;;;;359.85;114.20;;;2.70;99.90;;;;;;2603674;54;20142;31
2022/02/27 01:12:44;;;;;;;385.75;116.50;;;2.50;99.90;;;;;;2621847;46;20945;31
2022/02/27 01:15:21;;;;;;;382.80;118.10;;;2.50;99.90;;;;;;2603885;54;20029;31
2022/02/27 01:17:57;;;;;;;354.15;108.18;;;2.40;99.90;;;;;;2622001;46;20079;31
2022/02/27 01:20:31;;;;;;;427.52;129.98;;;2.30;99.90;;;;;;2603694;54;20022;31
2022/02/27 01:23:05;;;;;;;403.80;119.65;;;2.20;99.90;;;;;;2603479;54;20029;31
2022/02/27 01:25:41;;;;;;;431.67;132.50;;;2.20;99.90;;;;;;2603531;54;25057;31
2022/02/27 01:28:16;;;;;;;389.40;121.95;;;2.10;99.90;;;;;;2602475;54;20050;31
2022/02/27 01:30:54;;;;;;;425.20;125.63;;;2.10;99.90;;;;;;2622154;46;20030;31
2022/02/27 01:33:28;;;;;;;404.50;122.80;;;2.00;99.90;;;;;;2603832;54;20029;31
2022/02/27 01:36:02;;;;;;;412.27;119.18;;;2.00;99.90;;;;;;2621744;46;20749;31
2022/02/27 01:38:36;;;;;;;407.38;119.85;;;1.90;99.90;;;;;;2622434;46;20030;31
2022/02/27 01:41:10;;;;;;;371.92;114.07;;;1.90;99.90;;;;;;2603603;54;20101;31
2022/02/27 01:43:45;;;;;;;415.00;124.18;;;1.90;99.90;;;;;;2603383;54;20950;31
2022/02/27 01:46:22;;;;;;;398.58;122.68;;;1.80;99.90;;;;;;2603793;54;20889;31
2022/02/27 01:48:56;;;;;;;376.17;110.43;;;1.70;99.90;;;;;;2603799;54;20888;31
2022/02/27 01:51:30;;;;;;;406.50;124.85;;;1.60;99.90;;;;;;2603558;54;20033;31
2022/02/27 01:54:04;;;;;;;377.83;112.17;;;1.60;99.90;;;;;;2603712;54;20932;31
2022/02/27 01:56:41;;;;;;;371.42;111.22;;;1.50;99.90;;;;;;2603296;54;20077;31
2022/02/27 01:59:15;;;;;;;436.80;127.70;;;1.50;99.90;;;;;;2622139;46;20046;31
2022/02/27 02:01:52;;;;;;;411.83;124.50;;;1.50;99.90;;;;;;2603854;54;20032;31
2022/02/27 02:04:26;;;;;;;362.83;103.53;;;1.50;99.90;;;;;;2603175;54;20965;31
2022/02/27 02:07:00;;;;;;;381.20;113.95;;;1.40;99.90;;;;;;2603551;54;20113;31
2022/02/27 02:09:34;;;;;;;288.85;92.65;;;1.30;99.90;;;;;;2633912;31;21260;31
2022/02/27 02:12:10;;;;;;;314.52;96.00;;;1.30;99.90;;;;;;2622519;46;20863;31
2022/02/27 02:14:43;;;;;;;318.03;96.83;;;1.20;99.90;;;;;;2702111;39;22457;31
2022/02/27 02:17:21;;;;;;;245.13;77.15;;;1.10;99.90;;;;;;2603535;54;20092;31
2022/02/27 02:19:58;;;;;;;252.50;81.22;;;1.10;99.90;;;;;;2622170;31;21278;31
2022/02/27 02:22:32;;;;;;;237.13;76.43;;;1.10;99.90;;;;;;2603510;54;19958;31
2022/02/27 02:25:08;;;;;;;237.65;76.10;;;1.00;99.90;;;;;;2603694;54;20026;31
2022/02/27 02:27:41;;;;;;;210.93;69.30;;;1.00;99.90;;;;;;2618467;46;20955;31
2022/02/27 02:30:17;;;;;;;229.00;74.60;;;0.90;99.90;;;;;;2621957;46;20868;31
2022/02/27 02:32:55;;;;;;;202.70;66.35;;;0.90;99.90;;;;;;2622104;46;20861;31
2022/02/27 02:35:32;;;;;;;188.98;61.00;;;0.90;99.90;;;;;;2622057;46;20034;31
2022/02/27 02:38:07;;;;;;;179.13;62.88;;;0.80;99.90;;;;;;2603205;54;20046;31
2022/02/27 02:40:41;;;;;;;162.07;56.47;;;0.80;99.90;;;;;;2603365;54;20034;31
2022/02/27 02:43:16;;;;;;;169.80;61.95;;;0.80;99.90;;;;;;2622142;46;20887;31
2022/02/27 02:45:50;;;;;;;174.10;62.65;;;0.80;99.90;;;;;;2621602;46;20071;31
2022/02/27 02:48:24;;;;;;;158.65;58.13;;;0.70;99.90;;;;;;2622303;46;19934;31
2022/02/27 02:51:17;;;;;;;148.50;56.55;;;0.70;99.90;;;;;;2622197;46;20841;31
2022/02/27 02:53:51;;;;;;;150.23;54.08;;;0.60;99.90;;;;;;2701887;39;21460;31
2022/02/27 02:56:25;;;;;;;133.27;53.50;;;0.60;99.90;;;;;;2603732;54;20868;31
2022/02/27 02:58:59;;;;;;;125.40;48.00;;;0.60;99.90;;;;;;2603341;54;20046;31
2022/02/27 03:01:33;;;;;;;114.60;48.35;;;0.60;99.90;;;;;;2603331;54;20093;31
2022/02/27 03:04:08;;;;;;;111.80;45.45;;;0.60;99.90;;;;;;2603346;54;20031;31
2022/02/27 03:06:45;;;;;;;99.97;37.47;;;0.50;99.90;;;;;;2603607;54;20082;31
2022/02/27 03:09:20;;;;;;;117.05;48.90;;;0.60;99.90;;;;;;2603370;54;20088;31
2022/02/27 03:11:54;;;;;;;115.60;47.50;;;0.50;99.90;;;;;;2602801;54;20032;31
2022/02/27 03:14:28;;;;;;;111.72;49.92;;;0.50;99.90;;;;;;2603617;54;20868;31
2022/02/27 03:17:02;;;;;;;116.57;46.95;;;0.40;99.90;;;;;;2622071;46;20877;31
2022/02/27 03:19:36;;;;;;;103.32;43.75;;;0.40;99.90;;;;;;2603356;54;20033;31
2022/02/27 03:22:15;;;;;;;110.07;45.67;;;0.40;99.90;;;;;;2603502;54;20034;31
2022/02/27 03:24:49;;;;;;;95.10;43.60;;;0.40;99.90;;;;;;2602521;54;20054;31
2022/02/27 03:27:23;;;;;;;93.18;42.15;;;0.30;99.90;;;;;;2603228;54;20083;31
2022/02/27 03:29:57;;;;;;;92.68;39.42;;;0.30;99.90;;;;;;2622109;46;20092;31
2022/02/27 03:32:31;;;;;;;97.72;45.40;;;0.30;99.90;;;;;;2603045;54;20030;31
2022/02/27 03:35:06;;;;;;;94.85;43.17;;;0.30;99.90;;;;;;2621997;46;19949;31
2022/02/27 03:37:43;;;;;;;100.95;44.45;;;0.30;99.90;;;;;;2602552;54;20827;31
2022/02/27 03:40:17;;;;;;;94.20;44.20;;;0.20;99.90;;;;;;2603209;54;20046;31
2022/02/27 03:42:51;;;;;;;87.00;39.95;;;0.20;99.90;;;;;;2603223;54;20059;31
2022/02/27 03:45:25;;;;;;;75.88;37.90;;;0.20;99.90;;;;;;2603152;54;20055;31
2022/02/27 03:47:59;;;;;;;77.55;37.95;;;0.10;99.90;;;;;;2603413;54;20078;31
2022/02/27 03:50:33;;;;;;;81.80;37.58;;;0.10;99.90;;;;;;2603590;54;20862;31
2022/02/27 03:53:10;;;;;;;82.38;40.40;;;0.10;99.90;;;;;;2604029;54;20030;31
2022/02/27 03:55:44;;;;;;;89.63;43.47;;;0.10;99.90;;;;;;2622936;46;20034;31
2022/02/27 03:58:18;;;;;;;76.85;38.28;;;0.10;99.90;;;;;;2604147;54;20876;31
2022/02/27 04:00:50;;;;;;;75.43;38.83;;;0.00;99.90;;;;;;2701978;39;22469;31
2022/02/27 04:03:23;;;;;;;91.55;46.35;;;0.00;99.90;;;;;;2721453;39;21059;31
2022/02/27 04:05:57;;;;;;;157.35;78.05;;;0.00;99.90;;;;;;2604004;54;20126;31
2022/02/27 04:08:37;;;;;;;209.45;100.65;;;0.00;99.90;;;;;;2604100;54;20720;31
2022/02/27 04:11:11;;;;;;;206.40;97.00;;;0.00;99.90;;;;;;2603961;54;20026;31
2022/02/27 04:13:43;;;;;;;159.93;77.20;;;0.00;99.90;;;;;;2604241;54;21318;31
2022/02/27 04:16:17;;;;;;;159.18;76.95;;;-0.10;99.90;;;;;;2606385;46;20050;31
2022/02/27 04:18:52;;;;;;;140.75;71.70;;;-0.10;99.90;;;;;;2604090;54;19941;31
2022/02/27 04:21:26;;;;;;;148.23;72.57;;;-0.10;99.90;;;;;;2603866;54;20046;31
2022/02/27 04:24:03;;;;;;;145.35;74.30;;;-0.10;99.90;;;;;;2604142;54;20085;31
2022/02/27 04:26:37;;;;;;;138.23;69.03;;;-0.20;99.90;;;;;;2622485;46;20894;31
2022/02/27 04:29:09;;;;;;;128.85;64.40;;;-0.20;99.90;;;;;;2622132;46;21837;31
2022/02/27 04:31:41;;;;;;;120.85;61.05;;;-0.30;99.90;;;;;;2702496;39;21156;31
2022/02/27 04:34:15;;;;;;;109.80;55.90;;;-0.30;99.90;;;;;;2603886;54;20033;31
2022/02/27 04:36:49;;;;;;;106.00;56.40;;;-0.30;99.90;;;;;;2603677;54;20100;31
2022/02/27 04:39:26;;;;;;;108.05;58.35;;;-0.40;99.90;;;;;;2603871;54;20038;31
2022/02/27 04:42:00;;;;;;;107.33;57.87;;;-0.30;99.90;;;;;;2603977;54;20116;31
2022/02/27 04:44:36;;;;;;;95.72;53.83;;;-0.40;99.90;;;;;;2604070;54;20074;31
2022/02/27 04:47:13;;;;;;;99.35;53.42;;;-0.40;99.90;;;;;;2604048;54;20731;31
2022/02/27 04:49:49;;;;;;;84.22;46.45;;;-0.40;99.90;;;;;;2603835;54;20033;31
2022/02/27 04:52:24;;;;;;;92.05;51.13;;;-0.40;99.90;;;;;;2603882;54;20026;31
2022/02/27 04:55:02;;;;;;;99.82;53.25;;;-0.40;99.90;;;;;;2603907;54;20097;31
2022/02/27 04:57:35;;;;;;;93.80;50.55;;;-0.40;99.90;;;;;;2603872;54;20113;31
2022/02/27 05:00:10;;;;;;;87.60;45.90;;;-0.40;99.90;;;;;;2622619;46;20090;31
2022/02/27 05:02:44;;;;;;;67.80;38.40;;;-0.50;99.90;;;;;;2603782;54;20033;31
2022/02/27 05:05:18;;;;;;;68.47;37.88;;;-0.50;99.90;;;;;;2603796;54;20022;31
2022/02/27 05:07:52;;;;;;;72.30;41.50;;;-0.50;99.90;;;;;;2603996;54;20030;31
2022/02/27 05:10:29;;;;;;;59.15;33.90;;;-0.50;99.90;;;;;;2609084;46;20034;31
2022/02/27 05:13:01;;;;;;;57.28;32.83;;;-0.50;99.90;;;;;;2773994;31;21128;31
2022/02/27 05:15:36;;;;;;;46.70;28.10;;;-0.50;99.90;;;;;;2603754;54;20026;31
2022/02/27 05:18:09;;;;;;;59.33;32.50;;;-0.50;99.90;;;;;;2603997;54;20027;31
2022/02/27 05:20:43;;;;;;;49.88;28.33;;;-0.50;99.90;;;;;;2603789;54;20372;31
2022/02/27 05:23:23;;;;;;;61.03;36.70;;;-0.50;99.90;;;;;;2622292;46;20826;31
2022/02/27 05:26:00;;;;;;;73.13;40.90;;;-0.60;99.90;;;;;;2603714;54;20027;31
2022/02/27 05:28:34;;;;;;;67.80;37.63;;;-0.60;99.90;;;;;;2603926;54;20026;31
2022/02/27 05:31:08;;;;;;;62.95;33.80;;;-0.60;99.90;;;;;;2603838;54;20077;31
2022/02/27 05:33:42;;;;;;;62.20;31.80;;;-0.50;99.90;;;;;;2702418;39;21546;31
2022/02/27 05:36:14;;;;;;;53.35;29.35;;;-0.50;99.90;;;;;;2702285;39;21202;31
2022/02/27 05:38:49;;;;;;;47.53;26.15;;;-0.40;99.90;;;;;;2603860;54;20072;31
2022/02/27 05:41:25;;;;;;;47.50;26.07;;;-0.40;99.90;;;;;;2603900;54;20026;31
2022/02/27 05:44:02;;;;;;;44.10;22.25;;;-0.30;99.90;;;;;;2603944;54;21921;31
2022/02/27 05:46:36;;;;;;;48.15;26.30;;;-0.30;99.90;;;;;;2603805;54;20038;31
2022/02/27 05:49:10;;;;;;;40.65;22.50;;;-0.30;99.90;;;;;;2603557;54;20022;31
2022/02/27 05:51:46;;;;;;;55.22;29.58;;;-0.20;99.90;;;;;;2603721;54;20030;31
2022/02/27 05:54:21;;;;;;;53.40;27.67;;;-0.20;99.90;;;;;;2606642;46;20931;31
2022/02/27 05:57:00;;;;;;;57.75;30.50;;;-0.20;99.90;;;;;;2773433;31;21415;31
2022/02/27 05:59:36;;;;;;;62.13;33.10;;;-0.10;99.90;;;;;;2622210;46;20034;31
2022/02/27 06:02:10;;;;;;;68.53;36.45;;;-0.10;99.90;;;;;;2603683;54;20030;31
2022/02/27 06:04:44;;;;;;;76.07;42.77;;;0.00;99.90;;;;;;2603541;54;20871;31
2022/02/27 06:07:19;;;;;;;83.60;45.08;;;0.20;99.90;;;;;;2603705;54;20889;31
2022/02/27 06:09:54;;;;;;;75.25;41.88;;;0.30;99.90;;;;;;2603795;54;20813;31
2022/02/27 06:12:31;;;;;;;67.25;39.10;;;0.50;99.90;;;;;;2603552;54;20034;31
2022/02/27 06:15:07;;;;;;;70.55;37.22;;;0.70;99.90;;;;;;2603091;54;20031;31
2022/02/27 06:17:41;;;;;;;70.70;37.80;;;0.80;99.90;;;;;;2603563;54;20026;31
2022/02/27 06:20:14;;;;;;;66.72;38.30;;;1.00;99.90;;;;;;2622454;46;20057;31
2022/02/27 06:22:49;;;;;;;74.00;39.40;;;1.00;99.90;;;;;;2603696;54;20031;31
2022/02/27 06:25:23;;;;;;;73.85;41.17;;;1.00;99.90;;;;;;2622237;46;20026;31
2022/02/27 06:28:01;;;;;;;86.90;44.30;;;1.00;99.90;;;;;;2603504;54;20118;31
2022/02/27 06:30:35;;;;;;;100.68;48.38;;;0.90;99.90;;;;;;2702138;39;22646;31
2022/02/27 06:33:09;;;;;;;84.60;46.47;;;0.90;99.90;;;;;;2603389;54;20085;31
2022/02/27 06:35:43;;;;;;;101.60;50.47;;;1.00;99.90;;;;;;2603663;54;20036;31
2022/02/27 06:38:18;;;;;;;95.90;48.25;;;1.00;99.90;;;;;;2603546;54;19935;31
2022/02/27 06:40:53;;;;;;;100.47;47.38;;;1.00;99.90;;;;;;2603659;54;20026;31
2022/02/27 06:43:32;;;;;;;108.00;52.67;;;0.90;99.90;;;;;;2622243;46;20777;31
2022/02/27 06:46:07;;;;;;;108.15;51.85;;;0.90;99.90;;;;;;2603754;54;20058;31
2022/02/27 06:48:42;;;;;;;112.88;53.38;;;0.90;99.90;;;;;;2603443;54;20887;31
2022/02/27 06:51:17;;;;;;;100.07;48.63;;;0.90;99.90;;;;;;2603465;54;20026;31
2022/02/27 06:53:52;;;;;;;108.70;53.97;;;0.90;99.90;;;;;;2603462;54;20030;31
2022/02/27 06:56:27;;;;;;;112.33;53.23;;;0.80;99.90;;;;;;2603669;54;20037;31
2022/02/27 06:59:04;;;;;;;118.82;48.85;;;0.90;99.90;;;;;;2603378;54;20019;31
2022/02/27 07:01:39;;;;;;;128.07;52.45;;;0.90;99.90;;;;;;2621888;46;20026;31
2022/02/27 07:04:14;;;;;;;142.88;53.33;;;0.90;99.90;;;;;;2701763;39;20388;31
2022/02/27 07:06:50;;;;;;;98.55;46.38;;;0.90;99.90;;;;;;2603464;54;19935;31
2022/02/27 07:09:24;;;;;;;107.22;46.58;;;0.80;99.90;;;;;;2603531;54;20081;31
2022/02/27 07:11:58;;;;;;;119.20;45.90;;;0.90;99.90;;;;;;2603537;54;20030;31
2022/02/27 07:14:36;;;;;;;95.18;42.00;;;0.90;99.90;;;;;;2603300;54;20036;31
2022/02/27 07:17:11;;;;;;;102.00;40.80;;;0.90;99.90;;;;;;2603569;54;20898;31
2022/02/27 07:19:46;;;;;;;94.47;40.03;;;0.90;99.90;;;;;;2603494;54;20026;31
2022/02/27 07:22:24;;;;;;;87.95;39.90;;;0.90;99.90;;;;;;2603239;54;20839;31
2022/02/27 07:24:59;;;;;;;93.00;40.20;;;1.00;99.90;;;;;;2603336;54;20037;31
2022/02/27 07:27:34;;;;;;;104.88;43.42;;;1.00;99.90;;;;;;2621975;46;20084;31
2022/02/27 07:30:16;;;;;;;92.00;41.30;;;1.00;99.90;;;;;;2603183;54;21032;31
2022/02/27 07:32:53;;;;;;;88.60;39.60;;;1.00;99.90;;;;;;2603289;54;20043;31
2022/02/27 07:35:28;;;;;;;88.95;37.65;;;1.10;99.90;;;;;;2603220;54;20921;31
2022/02/27 07:38:03;;;;;;;77.33;35.93;;;1.10;99.90;;;;;;2603390;54;20032;31
2022/02/27 07:40:37;;;;;;;81.03;35.43;;;1.10;99.90;;;;;;2603144;54;20053;31
2022/02/27 07:43:13;;;;;;;73.25;33.85;;;1.10;99.90;;;;;;2603263;54;20928;31
2022/02/27 07:45:51;;;;;;;83.00;35.08;;;1.10;99.90;;;;;;2603188;54;20037;31
2022/02/27 07:48:27;;;;;;;65.80;32.60;;;1.20;99.90;;;;;;2621689;46;20026;31
2022/02/27 07:51:03;;;;;;;93.53;37.10;;;1.20;99.90;;;;;;2603362;54;20031;31
2022/02/27 07:53:38;;;;;;;83.95;37.53;;;1.20;99.90;;;;;;2603243;54;20096;31
2022/02/27 07:56:13;;;;;;;78.97;35.88;;;1.20;99.90;;;;;;2603262;54;20037;31
2022/02/27 07:58:47;;;;;;;70.78;34.78;;;1.20;99.90;;;;;;2603196;54;20038;31
2022/02/27 08:01:23;;;;;;;73.27;33.70;;;1.20;99.90;;;;;;2602972;54;20900;31
2022/02/27 08:03:58;;;;;;;73.65;33.30;;;1.20;99.90;;;;;;2603412;54;20053;31
2022/02/27 08:06:32;;;;;;;72.85;34.00;;;1.20;99.90;;;;;;2603092;54;20046;31
2022/02/27 08:09:07;;;;;;;65.32;32.00;;;1.20;99.90;;;;;;2701726;39;21184;31
2022/02/27 08:11:42;;;;;;;67.47;32.00;;;1.30;99.90;;;;;;2602593;54;20093;31
2022/02/27 08:14:16;;;;;;;59.95;30.00;;;1.30;99.90;;;;;;2603180;54;20034;31
2022/02/27 08:16:54;;;;;;;64.47;33.75;;;1.30;99.90;;;;;;2603160;54;20030;31
2022/02/27 08:19:29;;;;;;;63.63;32.28;;;1.40;99.90;;;;;;2602993;54;20026;31
2022/02/27 08:22:01;;;;;;;69.97;32.42;;;1.40;99.90;;;;;;2701708;39;20919;31
2022/02/27 08:24:36;;;;;;;69.25;33.03;;;1.50;99.90;;;;;;2602293;54;20054;31
2022/02/27 08:27:09;;;;;;;70.32;35.10;;;1.50;99.90;;;;;;2603082;54;20097;31
2022/02/27 08:29:44;;;;;;;77.50;33.38;;;1.60;99.90;;;;;;2701521;39;20536;31
2022/02/27 08:32:22;;;;;;;68.75;29.60;;;1.60;99.90;;;;;;2603116;54;19946;31
2022/02/27 08:34:57;;;;;;;72.10;32.33;;;1.70;99.90;;;;;;2603017;54;20984;31
2022/02/27 08:37:31;;;;;;;68.95;34.30;;;1.70;99.90;;;;;;2602954;54;20049;31
2022/02/27 08:40:04;;;;;;;82.20;35.42;;;1.70;99.90;;;;;;2702613;39;21019;31
2022/02/27 08:42:38;;;;;;;71.10;34.40;;;1.70;99.90;;;;;;2603728;54;20034;31
2022/02/27 08:45:13;;;;;;;76.53;34.88;;;1.70;99.90;;;;;;2603709;54;20761;31
2022/02/27 08:47:50;;;;;;;72.82;34.30;;;1.70;99.90;;;;;;2622243;46;20046;31
2022/02/27 08:50:24;;;;;;;65.30;32.90;;;1.70;99.90;;;;;;2603732;54;20035;31
2022/02/27 08:52:59;;;;;;;70.00;32.80;;;1.80;99.90;;;;;;2603891;54;20082;31
2022/02/27 08:55:33;;;;;;;75.95;33.35;;;1.80;99.90;;;;;;2603666;54;20161;31
2022/02/27 08:58:08;;;;;;;66.40;34.63;;;1.80;99.90;;;;;;2603898;54;20054;31
2022/02/27 09:00:43;;;;;;;74.75;35.65;;;1.90;99.90;;;;;;2622282;46;20030;31
2022/02/27 09:03:24;;;;;;;74.97;34.85;;;1.90;99.90;;;;;;2603913;54;20045;31
2022/02/27 09:05:59;;;;;;;74.20;35.10;;;1.90;99.90;;;;;;2603523;54;20026;31
2022/02/27 09:08:34;;;;;;;76.78;36.00;;;2.00;99.90;;;;;;2603628;54;20071;31
2022/02/27 09:11:09;;;;;;;70.70;33.78;;;2.00;99.90;;;;;;2603637;54;20050;31
2022/02/27 09:13:44;;;;;;;83.95;36.25;;;2.00;99.90;;;;;;2603844;54;20035;31
2022/02/27 09:16:19;;;;;;;80.18;37.33;;;2.10;99.90;;;;;;2622429;46;20089;31
2022/02/27 09:18:57;;;;;;;72.03;34.27;;;2.10;99.90;;;;;;2622352;46;20038;31
2022/02/27 09:21:32;;;;;;;74.90;37.30;;;2.20;99.90;;;;;;2603721;54;20057;31
2022/02/27 09:24:07;;;;;;;68.60;34.38;;;2.40;99.90;;;;;;2603754;54;20078;31
2022/02/27 09:26:43;;;;;;;64.55;33.00;;;2.50;99.90;;;;;;2603669;54;20092;31
2022/02/27 09:29:17;;;;;;;63.25;32.72;;;2.60;99.90;;;;;;2603687;54;20107;31
2022/02/27 09:31:52;;;;;;;61.53;30.42;;;2.70;99.90;;;;;;2603563;54;20047;31
2022/02/27 09:34:30;;;;;;;69.80;32.70;;;2.80;99.90;;;;;;2603756;54;20161;31
2022/02/27 09:37:04;;;;;;;56.38;30.13;;;2.80;99.90;;;;;;2603720;54;20029;31
2022/02/27 09:39:38;;;;;;;65.72;32.78;;;2.80;99.90;;;;;;2603856;54;20485;31
2022/02/27 09:42:13;;;;;;;82.00;40.47;;;2.90;99.90;;;;;;2603813;54;20121;31
2022/02/27 09:44:51;;;;;;;59.00;32.35;;;2.90;99.90;;;;;;2603435;54;20050;31
2022/02/27 09:47:26;;;;;;;58.92;29.70;;;3.00;99.90;;;;;;2603476;54;20842;31
2022/02/27 09:50:04;;;;;;;61.80;32.20;;;3.00;99.90;;;;;;2621856;46;20069;31
2022/02/27 09:52:44;;;;;;;57.47;29.65;;;3.10;99.90;;;;;;2603691;54;20042;31
2022/02/27 09:55:18;;;;;;;63.10;31.80;;;3.20;99.90;;;;;;2603512;54;20184;31
2022/02/27 09:57:52;;;;;;;60.15;32.55;;;3.30;99.90;;;;;;2603504;54;20032;31
2022/02/27 10:00:27;;;;;;;54.03;30.33;;;3.30;99.90;;;;;;2603444;54;20156;31
2022/02/27 10:03:09;;;;;;;54.57;28.33;;;3.20;99.90;;;;;;2603803;54;20906;31
2022/02/27 10:05:47;;;;;;;59.50;32.15;;;3.20;99.90;;;;;;2603436;54;20548;31
2022/02/27 10:08:23;;;;;;;51.42;29.52;;;3.30;99.90;;;;;;2603493;54;20054;31
2022/02/27 10:10:58;;;;;;;66.70;38.23;;;3.30;99.90;;;;;;2603635;54;20061;31
2022/02/27 10:13:37;;;;;;;67.00;36.00;;;3.30;99.90;;;;;;2603609;54;20268;31
2022/02/27 10:16:13;;;;;;;67.60;37.80;;;3.40;99.90;;;;;;2603333;54;20045;31
2022/02/27 10:18:48;;;;;;;62.15;33.45;;;3.40;99.90;;;;;;2603595;54;20910;31
2022/02/27 10:21:26;;;;;;;57.40;31.50;;;3.40;99.90;;;;;;2603676;54;20104;31
2022/02/27 10:24:21;;;;;;;56.10;30.95;;;3.40;99.90;;;;;;2622058;46;20871;31
2022/02/27 10:26:56;;;;;;;62.05;32.65;;;3.50;99.90;;;;;;2603399;54;20037;31
2022/02/27 10:29:32;;;;;;;55.85;28.63;;;3.40;99.90;;;;;;2603333;54;20141;31
2022/02/27 10:32:09;;;;;;;54.63;30.02;;;3.40;99.90;;;;;;2603437;54;20161;31
2022/02/27 10:34:44;;;;;;;46.88;27.08;;;3.50;99.90;;;;;;2603432;54;20963;31
2022/02/27 10:37:21;;;;;;;51.95;27.60;;;3.50;99.90;;;;;;2603316;54;20110;31
2022/02/27 10:40:03;;;;;;;53.03;31.40;;;3.60;99.90;;;;;;2621913;46;20109;31
2022/02/27 10:42:37;;;;;;;47.95;29.05;;;3.70;99.90;;;;;;2603261;54;20034;31
2022/02/27 10:45:14;;;;;;;;;;;3.60;99.90;;;;;;2622078;46;20037;31
2022/02/27 10:47:49;;;;;;;54.65;29.42;;;3.60;99.90;;;;;;2603229;54;20758;31
2022/02/27 10:50:26;;;;;;;47.28;26.90;;;3.70;99.90;;;;;;2603427;54;20038;31
2022/02/27 10:53:03;;;;;;;59.67;31.07;;;3.70;99.90;;;;;;2603445;54;20050;31
2022/02/27 10:55:40;;;;;;;59.75;31.50;;;3.70;99.90;;;;;;2603513;54;20022;31
2022/02/27 10:58:16;;;;;;;55.60;31.70;;;3.70;99.90;;;;;;2622202;46;20106;31
2022/02/27 11:00:51;;;;;;;62.85;32.85;;;3.80;99.90;;;;;;2603332;54;20333;31
2022/02/27 11:03:35;;;;;;;62.70;33.72;;;3.80;99.90;;;;;;2603327;54;20052;31
2022/02/27 11:06:10;;;;;;;63.33;33.67;;;3.80;99.90;;;;;;2622166;46;20107;31
2022/02/27 11:08:47;;;;;;;48.08;26.65;;;3.90;99.90;;;;;;2603360;54;20030;31
2022/02/27 11:11:22;;;;;;;65.82;33.38;;;4.20;99.90;;;;;;2603381;54;20117;31
2022/02/27 11:13:57;;;;;;;60.30;33.15;;;4.70;99.90;;;;;;2621843;46;20026;31
2022/02/27 11:16:32;;;;;;;53.78;26.13;;;4.90;99.90;;;;;;2603426;54;20845;31
2022/02/27 11:19:10;;;;;;;57.47;26.88;;;5.60;99.90;;;;;;2603337;54;20037;31
2022/02/27 11:21:46;;;;;;;52.97;29.02;;;6.20;99.90;;;;;;2603099;54;20030;31
2022/02/27 11:24:22;;;;;;;59.60;31.63;;;6.80;99.90;;;;;;2603187;54;20088;31
2022/02/27 11:26:57;;;;;;;61.17;32.15;;;6.70;99.90;;;;;;2602460;54;20850;31
2022/02/27 11:29:32;;;;;;;55.80;31.80;;;6.50;99.90;;;;;;2602397;54;20594;31
2022/02/27 11:32:08;;;;;;;56.95;32.50;;;6.20;99.90;;;;;;2603212;54;20033;31
2022/02/27 11:34:43;;;;;;;63.80;35.65;;;6.00;99.90;;;;;;2603090;54;20045;31
2022/02/27 11:37:18;;;;;;;65.72;36.00;;;5.70;99.90;;;;;;2603206;54;20031;31
2022/02/27 11:42:53;;;;;;;65.85;37.60;;;5.30;99.90;;;;;;2603480;54;20030;31
2022/02/27 11:45:59;;;;;;;65.70;33.80;;;5.10;99.90;;;;;;2603295;54;20066;31
2022/02/27 11:48:59;;;;;;;69.93;35.60;;;4.90;99.90;;;;;;2603127;54;20068;31
2022/02/27 11:51:54;;;;;;;71.32;36.08;;;4.70;99.90;;;;;;2622256;46;20823;31
2022/02/27 11:54:44;;;;;;;63.13;35.78;;;4.60;99.90;;;;;;2602934;54;20033;31
2022/02/27 11:57:19;;;;;;;66.10;36.60;;;4.50;99.90;;;;;;2603283;54;20031;31
2022/02/27 12:00:06;;;;;;;62.63;35.05;;;4.40;99.90;;;;;;2603378;54;20096;31
2022/02/27 12:02:42;;;;;;;60.90;32.67;;;4.30;99.90;;;;;;2621784;47;20946;31
2022/02/27 12:05:18;;;;;;;55.28;31.58;;;4.20;99.90;;;;;;2603235;54;20866;31
2022/02/27 12:07:52;;;;;;;54.00;30.40;;;4.10;99.90;;;;;;2621878;47;20042;31
2022/02/27 12:10:35;;;;;;;50.55;29.25;;;4.00;99.90;;;;;;2603299;54;20027;31
2022/02/27 12:13:25;;;;;;;51.65;28.85;;;4.00;99.90;;;;;;2603285;54;20053;31
2022/02/27 12:16:10;;;;;;;50.40;25.75;;;3.90;99.90;;;;;;2604031;54;20022;31
2022/02/27 12:18:49;;;;;;;44.50;26.15;;;4.00;99.90;;;;;;2604011;54;20022;31
2022/02/27 12:21:35;;;;;;;45.90;26.00;;;4.10;99.90;;;;;;2649566;39;20429;31
2022/02/27 12:24:11;;;;;;;49.63;28.30;;;4.10;99.90;;;;;;2604183;54;20033;31
2022/02/27 12:26:51;;;;;;;51.30;29.55;;;4.20;99.90;;;;;;2721442;39;22189;31
2022/02/27 12:29:39;;;;;;;48.78;27.88;;;4.20;99.90;;;;;;2603841;54;20612;31
2022/02/27 12:34:50;;;;;;;49.53;27.80;;;4.20;99.90;;;;;;2603880;54;20912;31
2022/02/27 12:37:26;;;;;;;48.22;28.42;;;4.30;99.90;;;;;;2603263;54;20062;31
2022/02/27 12:40:01;;;;;;;52.30;28.70;;;4.30;99.90;;;;;;2603989;54;20026;31
2022/02/27 12:42:34;;;;;;;44.05;25.30;;;4.40;99.90;;;;;;2603875;54;20030;31
2022/02/27 12:45:12;;;;;;;44.83;27.52;;;4.40;99.90;;;;;;2604049;54;20027;31
2022/02/27 12:47:46;;;;;;;44.33;26.08;;;4.40;99.90;;;;;;2622640;46;20169;31
2022/02/27 12:50:24;;;;;;;47.75;26.98;;;4.40;99.90;;;;;;2603723;54;20081;31
2022/02/27 12:53:00;;;;;;;46.10;27.00;;;4.30;99.90;;;;;;2603895;54;20057;31
2022/02/27 12:55:37;;;;;;;44.83;27.77;;;4.30;99.90;;;;;;2603835;54;20049;31
2022/02/27 12:58:11;;;;;;;50.92;28.55;;;4.20;99.90;;;;;;2603929;54;20027;31
2022/02/27 13:00:47;;;;;;;47.47;26.33;;;4.20;99.90;;;;;;2603911;54;20008;31
2022/02/27 13:03:22;;;;;;;44.03;26.92;;;4.10;99.90;;;;;;2603678;54;20050;31
2022/02/27 13:06:03;;;;;;;56.13;32.42;;;4.10;99.90;;;;;;2603924;54;20030;31
2022/02/27 13:08:37;;;;;;;52.87;30.17;;;4.10;99.90;;;;;;2702559;39;21003;31
2022/02/27 13:11:12;;;;;;;53.53;29.27;;;4.00;99.90;;;;;;2603575;54;20030;31
2022/02/27 13:13:46;;;;;;;53.10;29.23;;;4.00;99.90;;;;;;2603644;54;20859;31
2022/02/27 13:16:28;;;;;;;51.70;29.30;;;3.90;99.90;;;;;;2603701;54;20545;31
2022/02/27 13:19:03;;;;;;;48.65;28.40;;;3.80;99.90;;;;;;2603548;54;20090;31
2022/02/27 13:21:41;;;;;;;67.25;35.95;;;3.80;99.90;;;;;;2603668;54;20838;31
2022/02/27 13:24:15;;;;;;;52.08;28.83;;;3.80;99.90;;;;;;2603585;54;20576;31
2022/02/27 13:26:50;;;;;;;51.65;26.70;;;3.80;99.90;;;;;;2603804;54;20057;31
2022/02/27 13:29:23;;;;;;;47.95;25.40;;;3.80;99.90;;;;;;2702392;39;20981;31
2022/02/27 13:31:58;;;;;;;45.42;25.52;;;3.80;99.90;;;;;;2603671;54;20023;31